createdAt,value
2019-05-13T00:00:10.038Z,99.90
2019-05-13T00:02:43.608Z,99.90
2019-05-13T00:05:14.671Z,99.90
2019-05-13T00:07:45.721Z,99.90
2019-05-13T00:10:16.337Z,99.90
2019-05-13T00:12:47.137Z,99.90
2019-05-13T00:15:18.003Z,99.90
2019-05-13T00:17:48.731Z,99.90
2019-05-13T00:20:19.708Z,99.90
2019-05-13T00:22:50.671Z,99.90
2019-05-13T00:25:21.531Z,99.90
2019-05-13T00:27:53.691Z,99.90
2019-05-13T00:30:25.906Z,99.90
2019-05-13T00:32:56.913Z,99.90
2019-05-13T00:35:27.765Z,99.90
2019-05-13T00:37:58.606Z,99.90
2019-05-13T00:40:29.247Z,99.90
2019-05-13T00:42:59.762Z,99.90
2019-05-13T00:45:30.418Z,99.90
2019-05-13T00:48:01.138Z,99.90
2019-05-13T00:50:33.544Z,99.90
2019-05-13T00:53:04.476Z,99.90
2019-05-13T00:55:35.928Z,99.90
2019-05-13T00:58:06.508Z,99.90
2019-05-13T01:00:36.896Z,99.90
2019-05-13T01:03:07.343Z,99.90
2019-05-13T01:05:37.946Z,99.90
2019-05-13T01:08:09.711Z,99.90
2019-05-13T01:10:40.325Z,99.90
2019-05-13T01:13:10.860Z,99.90
2019-05-13T01:15:44.087Z,99.90
2019-05-13T01:18:14.435Z,99.90
2019-05-13T01:20:45.319Z,99.90
2019-05-13T01:23:16.095Z,99.90
2019-05-13T01:25:47.088Z,99.90
2019-05-13T01:28:17.602Z,99.90
2019-05-13T01:30:48.124Z,99.90
2019-05-13T01:33:18.829Z,99.90
2019-05-13T01:35:49.616Z,99.90
2019-05-13T01:38:20.298Z,99.90
2019-05-13T01:40:53.966Z,99.90
2019-05-13T01:43:24.645Z,99.90
2019-05-13T01:45:55.493Z,99.90
2019-05-13T01:48:26.400Z,99.90
2019-05-13T01:50:57.053Z,99.90
2019-05-13T01:53:27.622Z,99.90
2019-05-13T01:56:03.635Z,99.90
2019-05-13T01:58:34.103Z,99.90
2019-05-13T02:01:05.299Z,99.90
2019-05-13T02:03:36.634Z,99.90
2019-05-13T02:06:07.305Z,99.90
2019-05-13T02:08:38.110Z,99.90
2019-05-13T02:11:08.644Z,99.90
2019-05-13T02:13:39.949Z,99.90
2019-05-13T02:16:10.752Z,99.90
2019-05-13T02:18:41.335Z,99.90
2019-05-13T02:21:13.805Z,99.90
2019-05-13T02:23:44.427Z,99.90
2019-05-13T02:26:15.048Z,99.90
2019-05-13T02:28:45.588Z,99.90
2019-05-13T02:31:22.961Z,99.90
2019-05-13T02:33:48.640Z,99.90
2019-05-13T02:36:22.533Z,99.90
2019-05-13T02:38:53.155Z,99.90
2019-05-13T02:41:23.836Z,99.90
2019-05-13T02:43:54.562Z,99.90
2019-05-13T02:46:25.269Z,99.90
2019-05-13T02:48:55.742Z,99.90
2019-05-13T02:51:26.267Z,99.90
2019-05-13T02:53:57.131Z,99.90
2019-05-13T02:56:27.894Z,99.90
2019-05-13T02:58:58.661Z,99.90
2019-05-13T03:01:32.867Z,99.90
2019-05-13T03:04:03.030Z,99.90
2019-05-13T03:06:33.676Z,99.90
2019-05-13T03:09:06.903Z,99.90
2019-05-13T03:11:37.925Z,99.90
2019-05-13T03:14:08.535Z,99.90
2019-05-13T03:16:47.885Z,99.90
2019-05-13T03:19:18.424Z,99.90
2019-05-13T03:21:52.113Z,99.90
2019-05-13T03:24:22.733Z,99.90
2019-05-13T03:26:53.738Z,99.90
2019-05-13T03:29:26.669Z,99.90
2019-05-13T03:31:57.368Z,99.90
2019-05-13T03:34:28.024Z,99.90
2019-05-13T03:36:58.765Z,99.90
2019-05-13T03:39:33.093Z,99.90
2019-05-13T03:42:04.357Z,99.90
2019-05-13T03:44:35.232Z,99.90
2019-05-13T03:47:06.224Z,99.90
2019-05-13T03:49:36.899Z,99.90
2019-05-13T03:52:08.172Z,99.90
2019-05-13T03:54:43.316Z,99.90
2019-05-13T03:57:12.742Z,99.90
2019-05-13T03:59:43.852Z,99.90
2019-05-13T04:02:14.614Z,99.90
2019-05-13T04:04:45.482Z,99.90
2019-05-13T04:07:16.739Z,99.90
2019-05-13T04:09:47.198Z,99.90
2019-05-13T04:12:17.818Z,99.90
2019-05-13T04:14:48.414Z,99.90
2019-05-13T04:17:18.821Z,99.90
2019-05-13T04:19:53.012Z,99.90
2019-05-13T04:22:23.327Z,99.90
2019-05-13T04:24:55.494Z,99.90
2019-05-13T04:27:27.510Z,99.90
2019-05-13T04:29:58.529Z,99.90
2019-05-13T04:32:33.305Z,99.90
2019-05-13T04:35:03.754Z,99.90
2019-05-13T04:37:34.274Z,99.90
2019-05-13T04:40:06.153Z,99.90
2019-05-13T04:42:36.939Z,99.90
2019-05-13T04:45:07.987Z,99.90
2019-05-13T04:47:38.602Z,99.90
2019-05-13T04:50:09.231Z,99.90
2019-05-13T04:52:42.393Z,99.90
2019-05-13T04:55:16.879Z,99.90
2019-05-13T04:57:47.600Z,99.90
2019-05-13T05:00:24.123Z,99.90
2019-05-13T05:03:33.421Z,99.90
2019-05-13T05:06:33.467Z,99.90
2019-05-13T05:09:12.555Z,99.90
2019-05-13T05:12:28.464Z,99.90
2019-05-13T05:15:42.843Z,99.90
2019-05-13T05:18:48.460Z,99.90
2019-05-13T05:21:25.124Z,99.90
2019-05-13T05:25:03.972Z,99.90
2019-05-13T05:28:08.030Z,99.90
2019-05-13T05:31:04.129Z,99.90
2019-05-13T05:34:11.630Z,99.90
2019-05-13T05:37:47.073Z,99.90
2019-05-13T05:40:30.467Z,99.90
2019-05-13T05:42:54.974Z,99.90
2019-05-13T05:45:25.979Z,99.90
2019-05-13T05:47:58.218Z,99.90
2019-05-13T05:50:31.892Z,99.90
2019-05-13T05:53:05.404Z,99.90
2019-05-13T05:55:42.714Z,99.90
2019-05-13T05:58:15.062Z,99.90
2019-05-13T06:00:48.975Z,99.90
2019-05-13T06:03:22.455Z,99.90
2019-05-13T06:05:55.501Z,99.90
2019-05-13T06:08:27.478Z,99.90
2019-05-13T06:11:00.744Z,99.90
2019-05-13T06:13:32.071Z,99.90
2019-05-13T06:16:03.348Z,99.90
2019-05-13T06:18:36.075Z,99.90
2019-05-13T06:21:45.762Z,99.90
2019-05-13T06:24:16.965Z,99.90
2019-05-13T06:26:48.239Z,99.90
2019-05-13T06:29:22.340Z,99.90
2019-05-13T06:31:53.298Z,99.90
2019-05-13T06:34:24.509Z,99.90
2019-05-13T06:36:55.485Z,99.90
2019-05-13T06:39:27.678Z,99.90
2019-05-13T06:41:58.993Z,99.90
2019-05-13T06:44:31.637Z,99.90
2019-05-13T06:47:02.979Z,99.90
2019-05-13T06:49:34.094Z,99.90
2019-05-13T06:52:25.357Z,99.90
2019-05-13T06:54:56.589Z,99.90
2019-05-13T06:57:27.308Z,99.90
2019-05-13T07:00:01.574Z,99.90
2019-05-13T07:02:33.792Z,99.90
2019-05-13T07:05:07.334Z,99.90
2019-05-13T07:07:38.759Z,99.90
2019-05-13T07:10:12.513Z,99.90
2019-05-13T07:12:42.374Z,99.90
2019-05-13T07:15:13.278Z,99.90
2019-05-13T07:17:44.360Z,99.90
2019-05-13T07:20:15.518Z,99.90
2019-05-13T07:22:46.626Z,99.90
2019-05-13T07:25:22.039Z,99.90
2019-05-13T07:27:51.861Z,99.90
2019-05-13T07:30:42.501Z,99.90
2019-05-13T07:33:13.511Z,99.90
2019-05-13T07:35:46.101Z,99.90
2019-05-13T07:38:18.469Z,99.90
2019-05-13T07:40:53.039Z,99.90
2019-05-13T07:43:25.056Z,99.90
2019-05-13T07:46:06.338Z,99.90
2019-05-13T07:48:37.034Z,99.90
2019-05-13T07:54:54.404Z,99.90
2019-05-13T07:57:25.435Z,99.90
2019-05-13T08:00:02.533Z,99.90
2019-05-13T08:02:34.164Z,99.90
2019-05-13T08:05:06.435Z,99.90
2019-05-13T08:07:37.392Z,99.90
2019-05-13T08:10:11.386Z,99.90
2019-05-13T08:12:41.446Z,99.90
2019-05-13T08:15:14.461Z,99.90
2019-05-13T08:17:47.688Z,99.90
2019-05-13T08:20:21.910Z,99.90
2019-05-13T08:22:52.142Z,99.90
2019-05-13T08:25:23.398Z,99.90
2019-05-13T08:27:57.576Z,99.90
2019-05-13T08:30:31.835Z,99.90
2019-05-13T08:33:15.430Z,99.90
2019-05-13T08:35:52.474Z,99.90
2019-05-13T08:38:37.781Z,99.90
2019-05-13T08:41:09.746Z,99.90
2019-05-13T08:43:46.586Z,99.90
2019-05-13T08:46:21.695Z,99.90
2019-05-13T08:48:54.978Z,99.90
2019-05-13T08:55:21.446Z,99.90
2019-05-13T08:57:55.279Z,99.90
2019-05-13T09:00:49.338Z,99.90
2019-05-13T09:03:25.604Z,99.90
2019-05-13T09:05:57.434Z,99.90
2019-05-13T09:08:31.972Z,99.90
2019-05-13T09:11:05.428Z,99.90
2019-05-13T09:13:44.134Z,99.90
2019-05-13T09:16:21.295Z,99.90
2019-05-13T09:18:55.676Z,99.90
2019-05-13T09:21:27.636Z,99.90
2019-05-13T09:24:02.411Z,99.90
2019-05-13T09:26:38.251Z,99.90
2019-05-13T09:29:14.650Z,99.90
2019-05-13T09:31:46.963Z,99.90
2019-05-13T09:34:22.621Z,99.90
2019-05-13T09:36:54.370Z,99.90
2019-05-13T09:39:26.013Z,99.90
2019-05-13T09:41:58.164Z,99.90
2019-05-13T09:44:32.405Z,99.90
2019-05-13T09:47:04.710Z,99.90
2019-05-13T09:49:35.731Z,99.90
2019-05-13T09:56:06.383Z,99.90
2019-05-13T09:58:37.246Z,99.90
2019-05-13T10:01:08.791Z,99.90
2019-05-13T10:03:53.921Z,99.10
2019-05-13T10:06:15.082Z,98.60
2019-05-13T10:08:52.227Z,99.90
2019-05-13T10:11:30.696Z,99.90
2019-05-13T10:14:02.216Z,95.20
2019-05-13T10:16:42.561Z,93.30
2019-05-13T10:19:15.057Z,91.20
2019-05-13T10:21:47.997Z,90.10
2019-05-13T10:24:19.235Z,88.80
2019-05-13T10:26:51.918Z,91.70
2019-05-13T10:29:25.333Z,92.50
2019-05-13T10:31:57.909Z,83.70
2019-05-13T10:34:32.041Z,82.10
2019-05-13T10:37:07.296Z,80.50
2019-05-13T10:39:38.438Z,80.10
2019-05-13T10:42:12.651Z,81.60
2019-05-13T10:44:45.448Z,82.10
2019-05-13T10:47:17.216Z,85.80
2019-05-13T10:49:52.539Z,79.50
2019-05-13T10:52:27.887Z,74.20
2019-05-13T10:55:01.913Z,74.50
2019-05-13T10:57:42.406Z,72.90
2019-05-13T11:00:18.169Z,69.30
2019-05-13T11:02:54.949Z,67.10
2019-05-13T11:05:32.404Z,61.70
2019-05-13T11:08:02.675Z,58.90
2019-05-13T11:10:33.887Z,58.40
2019-05-13T11:13:06.127Z,59.90
2019-05-13T11:15:45.392Z,61.10
2019-05-13T11:18:19.483Z,60.40
2019-05-13T11:20:55.130Z,61.50
2019-05-13T11:23:27.677Z,64.50
2019-05-13T11:26:15.207Z,64.30
2019-05-13T11:28:48.395Z,63.60
2019-05-13T11:31:32.843Z,62.90
2019-05-13T11:34:04.294Z,64.40
2019-05-13T11:36:35.764Z,61.10
2019-05-13T11:39:12.928Z,53.40
2019-05-13T11:41:51.467Z,54.00
2019-05-13T11:44:25.746Z,51.80
2019-05-13T11:46:56.961Z,51.70
2019-05-13T11:49:28.113Z,54.00
2019-05-13T11:51:59.020Z,55.90
2019-05-13T11:54:30.241Z,52.60
2019-05-13T11:57:06.123Z,53.50
2019-05-13T11:59:42.384Z,53.10
2019-05-13T12:02:13.617Z,53.40
2019-05-13T12:04:45.116Z,51.50
2019-05-13T12:07:17.792Z,50.70
2019-05-13T12:09:54.307Z,50.90
2019-05-13T12:12:33.607Z,51.00
2019-05-13T12:15:26.562Z,51.00
2019-05-13T12:17:35.755Z,51.10
2019-05-13T12:20:12.017Z,51.10
2019-05-13T12:22:42.601Z,49.40
2019-05-13T12:25:14.216Z,49.70
2019-05-13T12:27:46.462Z,50.50
2019-05-13T12:30:22.561Z,50.30
2019-05-13T12:32:53.850Z,49.50
2019-05-13T12:35:26.885Z,50.20
2019-05-13T12:38:02.081Z,50.10
2019-05-13T12:40:34.057Z,50.70
2019-05-13T12:43:13.297Z,50.00
2019-05-13T12:45:45.096Z,50.40
2019-05-13T12:48:17.247Z,49.80
2019-05-13T12:50:48.955Z,49.40
2019-05-13T12:53:23.967Z,48.10
2019-05-13T12:55:57.067Z,47.90
2019-05-13T12:58:28.694Z,49.60
2019-05-13T13:01:01.493Z,48.90
2019-05-13T13:03:33.932Z,49.20
2019-05-13T13:08:51.010Z,44.70
2019-05-13T13:11:23.015Z,45.00
2019-05-13T13:13:59.450Z,44.70
2019-05-13T13:16:53.993Z,43.70
2019-05-13T13:19:44.221Z,44.30
2019-05-13T13:22:16.946Z,43.40
2019-05-13T13:25:07.474Z,42.40
2019-05-13T13:28:04.039Z,42.40
2019-05-13T13:30:23.137Z,44.70
2019-05-13T13:33:02.830Z,46.00
2019-05-13T13:35:35.685Z,46.90
2019-05-13T13:38:07.977Z,47.80
2019-05-13T13:40:45.693Z,47.50
2019-05-13T13:43:15.006Z,47.00
2019-05-13T13:46:07.284Z,47.30
2019-05-13T13:48:25.951Z,45.70
2019-05-13T13:50:58.412Z,46.10
2019-05-13T13:53:37.166Z,45.90
2019-05-13T13:56:07.886Z,46.30
2019-05-13T13:58:43.800Z,47.40
2019-05-13T14:01:19.902Z,47.70
2019-05-13T14:03:53.186Z,47.30
2019-05-13T14:07:13.205Z,48.10
2019-05-13T14:07:24.544Z,47.60
2019-05-13T14:09:02.082Z,47.00
2019-05-13T14:11:34.788Z,45.40
2019-05-13T14:14:08.201Z,45.00
2019-05-13T14:16:39.556Z,44.60
2019-05-13T14:19:11.698Z,44.50
2019-05-13T14:21:44.833Z,45.10
2019-05-13T14:24:39.196Z,46.10
2019-05-13T14:27:12.542Z,45.20
2019-05-13T14:29:49.169Z,45.80
2019-05-13T14:32:18.791Z,44.80
2019-05-13T14:34:52.607Z,44.60
2019-05-13T14:37:23.672Z,45.00
2019-05-13T14:39:54.645Z,45.40
2019-05-13T14:42:27.440Z,45.40
2019-05-13T14:44:58.737Z,45.80
2019-05-13T14:47:32.045Z,46.70
2019-05-13T14:50:06.222Z,48.70
2019-05-13T14:52:37.647Z,50.60
2019-05-13T14:55:13.952Z,51.00
2019-05-13T14:57:45.455Z,51.30
2019-05-13T15:00:22.138Z,50.60
2019-05-13T15:02:54.128Z,50.00
2019-05-13T15:05:28.447Z,49.70
2019-05-13T15:08:05.137Z,48.50
2019-05-13T15:10:38.492Z,47.50
2019-05-13T15:13:19.852Z,46.80
2019-05-13T15:15:54.037Z,46.60
2019-05-13T15:18:28.765Z,47.00
2019-05-13T15:21:12.108Z,46.60
2019-05-13T15:23:47.630Z,45.10
2019-05-13T15:26:39.166Z,45.40
2019-05-13T15:29:13.172Z,44.50
2019-05-13T15:31:46.866Z,43.60
2019-05-13T15:34:20.936Z,42.80
2019-05-13T15:36:58.844Z,42.30
2019-05-13T15:39:31.584Z,40.80
2019-05-13T15:42:03.428Z,40.90
2019-05-13T15:44:36.071Z,40.70
2019-05-13T15:47:22.206Z,40.20
2019-05-13T15:49:41.636Z,40.90
2019-05-13T15:52:13.057Z,40.70
2019-05-13T15:54:47.715Z,41.30
2019-05-13T15:57:22.290Z,39.80
2019-05-13T16:00:01.761Z,39.70
2019-05-13T16:02:31.925Z,39.90
2019-05-13T16:05:06.877Z,40.20
2019-05-13T16:07:52.556Z,39.20
2019-05-13T16:10:48.741Z,39.60
2019-05-13T16:13:27.470Z,40.20
2019-05-13T16:16:07.478Z,39.50
2019-05-13T16:18:42.190Z,39.10
2019-05-13T16:21:13.763Z,38.70
2019-05-13T16:23:45.172Z,37.90
2019-05-13T16:26:16.302Z,38.30
2019-05-13T16:28:47.761Z,37.70
2019-05-13T16:31:19.717Z,37.30
2019-05-13T16:33:52.201Z,37.00
2019-05-13T16:36:23.771Z,37.00
2019-05-13T16:38:55.307Z,37.00
2019-05-13T16:41:28.054Z,37.30
2019-05-13T16:44:00.063Z,37.20
2019-05-13T16:46:31.581Z,37.20
2019-05-13T16:49:03.255Z,36.60
2019-05-13T16:51:34.850Z,38.80
2019-05-13T16:54:06.797Z,39.50
2019-05-13T16:56:42.208Z,38.30
2019-05-13T16:59:13.931Z,38.20
2019-05-13T17:01:46.097Z,39.30
2019-05-13T17:04:18.302Z,39.30
2019-05-13T17:06:54.852Z,40.10
2019-05-13T17:10:25.491Z,40.80
2019-05-13T17:12:58.871Z,40.30
2019-05-13T17:15:31.183Z,39.90
2019-05-13T17:18:11.696Z,39.30
2019-05-13T17:20:41.453Z,39.20
2019-05-13T17:23:17.568Z,39.20
2019-05-13T17:26:07.877Z,39.40
2019-05-13T17:28:52.531Z,40.00
2019-05-13T17:31:24.756Z,40.40
2019-05-13T17:33:56.451Z,40.70
2019-05-13T17:36:29.538Z,39.80
2019-05-13T17:39:08.653Z,39.20
2019-05-13T17:41:44.128Z,39.80
2019-05-13T17:44:16.858Z,40.70
2019-05-13T17:46:48.346Z,40.00
2019-05-13T17:49:22.020Z,40.40
2019-05-13T17:52:02.139Z,40.70
2019-05-13T17:54:36.613Z,41.10
2019-05-13T17:57:12.400Z,41.10
2019-05-13T17:59:46.652Z,40.80
2019-05-13T18:02:18.384Z,41.20
2019-05-13T18:04:52.090Z,42.70
2019-05-13T18:07:25.943Z,43.40
2019-05-13T18:10:01.563Z,43.50
2019-05-13T18:12:33.323Z,43.70
2019-05-13T18:15:05.432Z,43.70
2019-05-13T18:17:45.028Z,43.50
2019-05-13T18:20:18.418Z,43.70
2019-05-13T18:22:53.767Z,43.60
2019-05-13T18:25:25.149Z,44.20
2019-05-13T18:27:57.199Z,45.20
2019-05-13T18:30:31.783Z,46.40
2019-05-13T18:33:04.889Z,46.90
2019-05-13T18:35:36.585Z,47.20
2019-05-13T18:38:08.138Z,48.00
2019-05-13T18:40:43.761Z,48.70
2019-05-13T18:43:33.022Z,49.70
2019-05-13T18:46:07.751Z,50.90
2019-05-13T18:48:58.043Z,52.20
2019-05-13T18:51:27.089Z,54.80
2019-05-13T18:54:02.076Z,63.60
2019-05-13T18:56:34.763Z,76.60
2019-05-13T18:59:09.147Z,91.10
2019-05-13T19:01:40.241Z,96.40
2019-05-13T19:04:15.931Z,99.90
2019-05-13T19:06:47.362Z,99.90
2019-05-13T19:09:21.814Z,99.90
2019-05-13T19:11:54.316Z,99.90
2019-05-13T19:14:31.721Z,99.90
2019-05-13T19:17:06.694Z,99.90
2019-05-13T19:19:38.259Z,99.90
2019-05-13T19:22:09.396Z,99.90
2019-05-13T19:24:41.665Z,99.90
2019-05-13T19:27:17.078Z,99.90
2019-05-13T19:29:48.985Z,99.90
2019-05-13T19:32:21.872Z,99.90
2019-05-13T19:34:58.440Z,99.90
2019-05-13T19:37:32.625Z,99.90
2019-05-13T19:40:13.705Z,99.90
2019-05-13T19:42:46.822Z,99.90
2019-05-13T19:45:21.789Z,99.90
2019-05-13T19:48:01.247Z,99.90
2019-05-13T19:50:33.315Z,99.90
2019-05-13T19:53:06.108Z,99.90
2019-05-13T19:55:41.446Z,99.90
2019-05-13T19:58:13.748Z,99.90
2019-05-13T20:00:45.713Z,99.90
2019-05-13T20:03:16.982Z,99.90
2019-05-13T20:05:51.298Z,99.90
2019-05-13T20:08:25.115Z,99.90
2019-05-13T20:10:58.423Z,99.90
2019-05-13T20:13:30.378Z,99.90
2019-05-13T20:16:02.646Z,99.90
2019-05-13T20:18:34.185Z,99.90
2019-05-13T20:21:06.534Z,99.90
2019-05-13T20:23:38.663Z,99.90
2019-05-13T20:27:06.115Z,99.90
2019-05-13T20:29:37.983Z,99.90
2019-05-13T20:32:11.837Z,99.90
2019-05-13T20:34:43.904Z,99.90
2019-05-13T20:37:14.888Z,99.90
2019-05-13T20:39:48.513Z,99.90
2019-05-13T20:42:19.402Z,99.90
2019-05-13T20:44:53.078Z,99.90
2019-05-13T20:47:24.168Z,99.90
2019-05-13T20:50:01.353Z,99.90
2019-05-13T20:52:27.513Z,99.90
2019-05-13T20:54:58.351Z,99.90
2019-05-13T20:57:32.404Z,99.90
2019-05-13T21:00:03.298Z,99.90
2019-05-13T21:02:36.102Z,99.90
2019-05-13T21:05:06.855Z,99.90
2019-05-13T21:07:37.541Z,99.90
2019-05-13T21:10:08.917Z,99.90
2019-05-13T21:12:41.788Z,99.90
2019-05-13T21:15:13.007Z,99.90
2019-05-13T21:17:44.414Z,99.90
2019-05-13T21:20:21.544Z,99.90
2019-05-13T21:22:51.578Z,99.90
2019-05-13T21:25:21.807Z,99.90
2019-05-13T21:27:54.473Z,99.90
2019-05-13T21:30:25.178Z,99.90
2019-05-13T21:32:58.868Z,99.90
2019-05-13T21:35:32.581Z,99.90
2019-05-13T21:38:02.959Z,99.90
2019-05-13T21:40:34.083Z,99.90
2019-05-13T21:43:07.878Z,99.90
2019-05-13T21:45:38.654Z,99.90
2019-05-13T21:48:11.045Z,99.90
2019-05-13T21:50:44.859Z,99.90
2019-05-13T21:53:15.548Z,99.90
2019-05-13T21:55:48.112Z,99.90
2019-05-13T21:58:18.898Z,99.90
2019-05-13T22:00:51.945Z,99.90
2019-05-13T22:03:25.890Z,99.90
2019-05-13T22:05:57.004Z,99.90
2019-05-13T22:08:27.601Z,99.90
2019-05-13T22:10:58.279Z,99.90
2019-05-13T22:13:31.370Z,99.90
2019-05-13T22:16:01.805Z,99.90
2019-05-13T22:18:32.339Z,99.90
2019-05-13T22:21:03.107Z,99.90
2019-05-13T22:23:33.820Z,99.90
2019-05-13T22:26:22.461Z,99.90
2019-05-13T22:29:09.467Z,99.90
2019-05-13T22:31:41.995Z,99.90
2019-05-13T22:34:12.837Z,99.90
2019-05-13T22:36:43.817Z,99.90
2019-05-13T22:39:14.514Z,99.90
2019-05-13T22:41:45.173Z,99.90
2019-05-13T22:44:15.932Z,99.90
2019-05-13T22:46:47.015Z,99.90
2019-05-13T22:49:17.724Z,99.90
2019-05-13T22:51:51.453Z,99.90
2019-05-13T22:54:22.169Z,99.90
2019-05-13T22:56:53.563Z,99.90
2019-05-13T22:59:24.370Z,99.90
2019-05-13T23:01:57.844Z,99.90
2019-05-13T23:04:28.584Z,99.90
2019-05-13T23:07:01.311Z,99.90
2019-05-13T23:09:32.300Z,99.90
2019-05-13T23:12:02.890Z,99.90
2019-05-13T23:14:35.143Z,99.90
2019-05-13T23:17:05.622Z,99.90
2019-05-13T23:19:36.178Z,99.90
2019-05-13T23:22:07.008Z,99.90
2019-05-13T23:24:37.834Z,99.90
2019-05-13T23:27:10.979Z,99.90
2019-05-13T23:29:41.360Z,99.90
2019-05-13T23:32:12.280Z,99.90
2019-05-13T23:34:43.057Z,99.90
2019-05-13T23:37:14.792Z,99.90
2019-05-13T23:39:45.549Z,99.90
2019-05-13T23:42:16.155Z,99.90
2019-05-13T23:44:47.827Z,99.90
2019-05-13T23:47:18.834Z,99.90
2019-05-13T23:49:51.213Z,99.90
2019-05-13T23:52:22.072Z,99.90
2019-05-13T23:54:52.751Z,99.90
2019-05-13T23:57:23.297Z,99.90
2019-05-13T23:59:54.154Z,99.90
